createdAt,value
2023-03-06T00:00:38.896Z,82.05
2023-03-06T00:03:06.324Z,83.27
2023-03-06T00:05:32.923Z,82.62
2023-03-06T00:07:59.825Z,83.17
2023-03-06T00:10:30.665Z,82.48
2023-03-06T00:13:02.907Z,82.51
2023-03-06T00:15:29.671Z,82.10
2023-03-06T00:17:57.730Z,82.25
2023-03-06T00:20:25.661Z,83.03
2023-03-06T00:22:52.309Z,83.06
2023-03-06T00:25:21.199Z,83.38
2023-03-06T00:27:48.589Z,83.30
2023-03-06T00:30:19.863Z,83.60
2023-03-06T00:32:46.704Z,83.26
2023-03-06T00:35:14.052Z,84.03
2023-03-06T00:37:40.914Z,84.10
2023-03-06T00:40:15.103Z,83.43
2023-03-06T00:42:41.703Z,83.94
2023-03-06T00:45:09.176Z,84.38
2023-03-06T00:47:35.800Z,83.80
2023-03-06T00:50:02.445Z,84.10
2023-03-06T00:52:28.987Z,84.46
2023-03-06T00:54:55.889Z,83.78
2023-03-06T00:57:24.862Z,84.01
2023-03-06T00:59:51.504Z,84.58
2023-03-06T01:02:20.399Z,84.60
2023-03-06T01:04:47.142Z,84.47
2023-03-06T01:07:13.758Z,84.76
2023-03-06T01:09:40.425Z,84.34
2023-03-06T01:12:09.920Z,84.43
2023-03-06T01:14:36.597Z,84.79
2023-03-06T01:17:07.954Z,85.21
2023-03-06T01:19:34.537Z,85.49
2023-03-06T01:22:01.175Z,85.58
2023-03-06T01:24:28.576Z,85.60
2023-03-06T01:26:55.190Z,84.82
2023-03-06T01:29:21.754Z,85.44
2023-03-06T01:31:48.398Z,84.90
2023-03-06T01:34:14.991Z,84.96
2023-03-06T01:36:41.593Z,85.44
2023-03-06T01:39:08.199Z,85.98
2023-03-06T01:41:34.802Z,86.20
2023-03-06T01:44:02.373Z,85.79
2023-03-06T01:46:28.922Z,85.74
2023-03-06T01:49:16.813Z,85.93
2023-03-06T01:52:11.830Z,86.09
2023-03-06T01:54:47.128Z,85.65
2023-03-06T01:57:19.176Z,86.43
2023-03-06T01:59:51.589Z,86.01
2023-03-06T02:02:18.265Z,86.41
2023-03-06T02:04:46.253Z,86.23
2023-03-06T02:07:15.642Z,85.50
2023-03-06T02:09:47.037Z,86.51
2023-03-06T02:12:20.825Z,86.52
2023-03-06T02:14:48.149Z,86.52
2023-03-06T02:17:18.279Z,86.23
2023-03-06T02:19:55.974Z,85.84
2023-03-06T02:22:25.489Z,85.94
2023-03-06T02:25:00.836Z,86.25
2023-03-06T02:27:27.937Z,86.19
2023-03-06T02:29:54.751Z,86.22
2023-03-06T02:32:21.350Z,86.46
2023-03-06T02:34:51.043Z,86.24
2023-03-06T02:37:18.163Z,86.54
2023-03-06T02:39:49.855Z,86.68
2023-03-06T02:42:22.274Z,86.56
2023-03-06T02:44:51.214Z,86.06
2023-03-06T02:47:20.656Z,86.52
2023-03-06T02:49:47.269Z,86.31
2023-03-06T02:52:13.857Z,86.26
2023-03-06T02:54:42.642Z,86.70
2023-03-06T02:57:09.287Z,86.37
2023-03-06T02:59:36.099Z,86.61
2023-03-06T03:02:02.707Z,86.50
2023-03-06T03:04:31.593Z,87.26
2023-03-06T03:06:58.163Z,86.23
2023-03-06T03:09:28.385Z,86.84
2023-03-06T03:11:54.996Z,86.82
2023-03-06T03:14:21.540Z,86.65
2023-03-06T03:16:48.212Z,87.27
2023-03-06T03:19:14.831Z,86.89
2023-03-06T03:21:41.699Z,86.86
2023-03-06T03:24:08.649Z,86.67
2023-03-06T03:26:35.157Z,86.75
2023-03-06T03:29:04.226Z,86.92
2023-03-06T03:31:31.701Z,87.31
2023-03-06T03:33:58.473Z,87.40
2023-03-06T03:36:26.109Z,87.26
2023-03-06T03:38:52.667Z,87.51
2023-03-06T03:41:19.237Z,87.03
2023-03-06T03:43:45.783Z,87.04
2023-03-06T03:46:12.432Z,87.50
2023-03-06T03:48:41.447Z,87.11
2023-03-06T03:51:13.216Z,87.28
2023-03-06T03:53:40.082Z,87.38
2023-03-06T03:56:06.908Z,87.02
2023-03-06T03:58:38.335Z,87.16
2023-03-06T04:01:08.241Z,86.99
2023-03-06T04:03:34.995Z,86.79
2023-03-06T04:06:02.103Z,87.06
2023-03-06T04:08:29.014Z,86.78
2023-03-06T04:10:56.090Z,86.66
2023-03-06T04:13:25.220Z,87.06
2023-03-06T04:15:55.820Z,86.97
2023-03-06T04:18:23.280Z,87.16
2023-03-06T04:20:50.065Z,86.85
2023-03-06T04:23:19.594Z,86.53
2023-03-06T04:25:46.750Z,86.68
2023-03-06T04:28:14.090Z,86.81
2023-03-06T04:30:43.116Z,86.33
2023-03-06T04:33:14.520Z,86.40
2023-03-06T04:35:43.372Z,86.50
2023-03-06T04:38:12.504Z,86.43
2023-03-06T04:40:39.107Z,86.96
2023-03-06T04:43:06.215Z,86.75
2023-03-06T04:45:33.706Z,86.81
2023-03-06T04:48:03.119Z,86.96
2023-03-06T04:50:32.580Z,86.17
2023-03-06T04:53:04.819Z,86.41
2023-03-06T04:55:31.846Z,86.08
2023-03-06T04:58:00.670Z,86.50
2023-03-06T05:00:30.673Z,86.65
2023-03-06T05:03:02.518Z,86.53
2023-03-06T05:05:30.007Z,86.58
2023-03-06T05:07:57.524Z,86.45
2023-03-06T05:10:24.138Z,86.29
2023-03-06T05:12:50.837Z,86.71
2023-03-06T05:15:17.911Z,86.66
2023-03-06T05:17:46.115Z,85.84
2023-03-06T05:20:16.825Z,86.16
2023-03-06T05:22:43.607Z,86.48
2023-03-06T05:25:11.248Z,86.56
2023-03-06T05:27:41.102Z,86.80
2023-03-06T05:30:14.060Z,86.48
2023-03-06T05:32:43.415Z,86.63
2023-03-06T05:35:17.148Z,86.67
2023-03-06T05:37:46.284Z,86.53
2023-03-06T05:40:14.081Z,87.08
2023-03-06T05:42:40.781Z,86.58
2023-03-06T05:45:08.383Z,86.58
2023-03-06T05:47:35.032Z,86.86
2023-03-06T05:50:01.735Z,86.25
2023-03-06T05:52:28.428Z,86.75
2023-03-06T05:54:55.345Z,86.83
2023-03-06T05:57:23.597Z,86.69
2023-03-06T05:59:50.784Z,87.21
2023-03-06T06:02:18.374Z,86.71
2023-03-06T06:04:45.794Z,86.84
2023-03-06T06:07:16.533Z,86.93
2023-03-06T06:09:48.008Z,86.84
2023-03-06T06:12:14.669Z,87.15
2023-03-06T06:14:41.380Z,86.56
2023-03-06T06:17:08.098Z,86.87
2023-03-06T06:19:34.704Z,87.27
2023-03-06T06:22:02.804Z,87.32
2023-03-06T06:24:30.342Z,86.74
2023-03-06T06:26:58.186Z,86.67
2023-03-06T06:29:26.148Z,86.51
2023-03-06T06:31:53.380Z,86.39
2023-03-06T06:34:20.555Z,86.88
2023-03-06T06:36:47.866Z,87.11
2023-03-06T06:39:19.403Z,87.10
2023-03-06T06:42:02.721Z,86.91
2023-03-06T06:44:32.537Z,86.48
2023-03-06T06:49:50.592Z,86.11
2023-03-06T06:52:18.773Z,86.14
2023-03-06T06:54:45.988Z,86.02
2023-03-06T06:57:17.716Z,86.40
2023-03-06T06:59:44.451Z,86.31
2023-03-06T07:02:13.775Z,86.12
2023-03-06T07:04:52.379Z,86.02
2023-03-06T07:07:25.446Z,86.39
2023-03-06T07:09:52.780Z,85.88
2023-03-06T07:12:19.631Z,86.32
2023-03-06T07:14:48.967Z,86.70
2023-03-06T07:17:18.414Z,85.98
2023-03-06T07:19:50.181Z,85.60
2023-03-06T07:22:19.073Z,86.29
2023-03-06T07:24:48.099Z,86.05
2023-03-06T07:27:14.690Z,86.24
2023-03-06T07:29:43.168Z,85.87
2023-03-06T07:32:11.632Z,85.84
2023-03-06T07:34:38.240Z,85.90
2023-03-06T07:37:04.986Z,86.21
2023-03-06T07:39:34.078Z,86.32
2023-03-06T07:42:01.081Z,85.34
2023-03-06T07:44:30.161Z,85.73
2023-03-06T07:46:57.145Z,85.92
2023-03-06T07:49:23.776Z,85.83
2023-03-06T07:51:50.374Z,85.87
2023-03-06T07:54:16.953Z,84.92
2023-03-06T07:56:47.167Z,85.37
2023-03-06T07:59:33.178Z,84.88
2023-03-06T08:02:03.936Z,84.05
2023-03-06T08:04:31.722Z,84.76
2023-03-06T08:07:01.903Z,83.78
2023-03-06T08:09:29.965Z,82.98
2023-03-06T08:11:59.956Z,83.09
2023-03-06T08:14:26.789Z,82.95
2023-03-06T08:16:56.340Z,82.59
2023-03-06T08:19:23.082Z,82.73
2023-03-06T08:21:49.636Z,82.88
2023-03-06T08:24:16.775Z,82.69
2023-03-06T08:26:45.722Z,82.19
2023-03-06T08:29:12.771Z,81.61
2023-03-06T08:31:46.969Z,81.49
2023-03-06T08:34:17.460Z,82.17
2023-03-06T08:36:46.494Z,81.17
2023-03-06T08:39:14.211Z,81.61
2023-03-06T08:41:42.268Z,81.74
2023-03-06T08:44:09.449Z,81.62
2023-03-06T08:46:36.347Z,81.07
2023-03-06T08:49:03.471Z,79.90
2023-03-06T08:51:30.059Z,79.53
2023-03-06T08:53:57.907Z,79.67
2023-03-06T08:56:34.466Z,80.64
2023-03-06T08:59:02.760Z,80.44
2023-03-06T09:01:32.338Z,79.70
2023-03-06T09:04:01.736Z,79.92
2023-03-06T09:06:33.525Z,80.83
2023-03-06T09:09:00.373Z,80.82
2023-03-06T09:11:27.856Z,80.52
2023-03-06T09:13:55.416Z,80.51
2023-03-06T09:16:22.102Z,80.48
2023-03-06T09:18:50.915Z,80.28
2023-03-06T09:21:17.588Z,79.57
2023-03-06T09:23:44.425Z,78.88
2023-03-06T09:26:12.337Z,78.14
2023-03-06T09:28:40.299Z,78.46
2023-03-06T09:31:12.409Z,78.75
2023-03-06T09:33:39.428Z,78.66
2023-03-06T09:36:08.148Z,78.89
2023-03-06T09:38:34.999Z,78.08
2023-03-06T09:41:22.912Z,77.87
2023-03-06T09:44:01.475Z,77.40
2023-03-06T09:46:31.272Z,76.65
2023-03-06T09:49:31.929Z,76.46
2023-03-06T09:52:10.625Z,76.15
2023-03-06T09:54:46.417Z,76.02
2023-03-06T09:57:26.487Z,75.60
2023-03-06T10:00:04.533Z,75.58
2023-03-06T10:02:44.801Z,75.57
2023-03-06T10:05:41.104Z,75.95
2023-03-06T10:08:27.162Z,75.44
2023-03-06T10:11:03.713Z,75.25
2023-03-06T10:13:35.443Z,75.04
2023-03-06T10:16:22.273Z,74.47
2023-03-06T10:18:49.318Z,73.99
2023-03-06T10:21:43.672Z,73.28
2023-03-06T10:24:47.995Z,72.86
2023-03-06T10:27:43.120Z,73.32
2023-03-06T10:30:33.786Z,73.21
2023-03-06T10:33:06.180Z,73.08
2023-03-06T10:35:45.666Z,73.65
2023-03-06T10:38:29.949Z,74.71
2023-03-06T10:41:08.060Z,74.99
2023-03-06T10:43:36.617Z,75.52
2023-03-06T10:46:06.683Z,76.01
2023-03-06T10:48:40.045Z,75.57
2023-03-06T10:51:18.818Z,75.02
2023-03-06T10:54:22.248Z,75.35
2023-03-06T10:56:48.843Z,75.58
2023-03-06T10:59:20.142Z,75.56
2023-03-06T11:01:51.522Z,75.90
2023-03-06T11:04:24.263Z,75.94
2023-03-06T11:07:18.087Z,76.28
2023-03-06T11:09:56.949Z,76.03
2023-03-06T11:12:32.341Z,75.43
2023-03-06T11:15:14.298Z,75.77
2023-03-06T11:17:53.427Z,75.62
2023-03-06T11:20:20.250Z,75.68
2023-03-06T11:22:52.210Z,75.25
2023-03-06T11:25:22.110Z,75.02
2023-03-06T11:27:57.841Z,74.97
2023-03-06T11:30:35.443Z,74.40
2023-03-06T11:33:15.332Z,74.44
2023-03-06T11:36:40.616Z,74.21
2023-03-06T11:39:36.758Z,73.15
2023-03-06T11:42:26.575Z,73.03
2023-03-06T11:45:05.080Z,73.39
2023-03-06T11:47:38.113Z,73.77
2023-03-06T11:50:07.631Z,73.85
2023-03-06T11:52:49.269Z,73.82
2023-03-06T11:55:24.052Z,73.55
2023-03-06T11:58:04.082Z,73.11
2023-03-06T12:00:54.061Z,72.40
2023-03-06T12:03:41.179Z,72.52
2023-03-06T12:06:15.712Z,72.20
2023-03-06T12:09:11.821Z,71.69
2023-03-06T12:11:50.279Z,72.38
2023-03-06T12:14:40.410Z,72.67
2023-03-06T12:17:39.004Z,72.91
2023-03-06T12:20:33.220Z,73.10
2023-03-06T12:23:16.650Z,73.42
2023-03-06T12:25:49.673Z,73.86
2023-03-06T12:28:19.380Z,73.40
2023-03-06T12:31:19.581Z,73.50
2023-03-06T12:33:56.528Z,73.51
2023-03-06T12:36:47.769Z,73.56
2023-03-06T12:39:45.269Z,73.75
2023-03-06T12:42:42.442Z,73.22
2023-03-06T12:45:33.739Z,72.37
2023-03-06T12:48:02.092Z,71.83
2023-03-06T12:50:33.005Z,71.58
2023-03-06T12:53:16.274Z,71.57
2023-03-06T12:55:46.546Z,71.20
2023-03-06T12:58:28.997Z,70.98
2023-03-06T13:01:05.883Z,70.19
2023-03-06T13:04:14.616Z,70.34
2023-03-06T13:07:02.060Z,69.50
2023-03-06T13:09:37.450Z,69.62
2023-03-06T13:12:06.218Z,69.61
2023-03-06T13:14:42.274Z,69.05
2023-03-06T13:17:24.069Z,69.53
2023-03-06T13:20:13.858Z,69.68
2023-03-06T13:22:44.358Z,69.59
2023-03-06T13:25:17.432Z,69.98
2023-03-06T13:27:53.225Z,70.46
2023-03-06T13:30:21.544Z,70.29
2023-03-06T13:32:52.821Z,70.77
2023-03-06T13:35:34.278Z,71.26
2023-03-06T13:38:01.518Z,71.45
2023-03-06T13:40:35.723Z,71.73
2023-03-06T13:43:07.917Z,72.42
2023-03-06T13:45:34.521Z,72.03
2023-03-06T13:48:37.564Z,71.77
2023-03-06T13:50:55.723Z,71.65
2023-03-06T13:53:50.079Z,70.83
2023-03-06T13:56:28.802Z,70.35
2023-03-06T13:59:25.918Z,70.31
2023-03-06T14:02:34.684Z,70.06
2023-03-06T14:05:03.884Z,69.71
2023-03-06T14:07:35.755Z,69.60
2023-03-06T14:10:15.603Z,69.84
2023-03-06T14:12:58.993Z,69.71
2023-03-06T14:15:53.889Z,69.50
2023-03-06T14:18:27.913Z,69.74
2023-03-06T14:21:07.526Z,69.67
2023-03-06T14:23:45.244Z,69.27
2023-03-06T14:26:17.594Z,69.44
2023-03-06T14:29:01.956Z,69.84
2023-03-06T14:31:32.132Z,70.08
2023-03-06T14:34:05.077Z,69.86
2023-03-06T14:36:45.391Z,69.95
2023-03-06T14:39:26.261Z,70.00
2023-03-06T14:42:08.478Z,69.97
2023-03-06T14:44:35.546Z,70.33
2023-03-06T14:47:25.011Z,70.49
2023-03-06T14:50:30.255Z,70.60
2023-03-06T14:53:16.662Z,69.95
2023-03-06T14:56:02.107Z,70.52
2023-03-06T14:58:36.855Z,69.97
2023-03-06T15:01:09.688Z,70.37
2023-03-06T15:03:51.104Z,70.80
2023-03-06T15:06:25.116Z,70.53
2023-03-06T15:09:02.599Z,70.99
2023-03-06T15:12:08.445Z,71.43
2023-03-06T15:14:43.342Z,71.08
2023-03-06T15:17:19.350Z,71.00
2023-03-06T15:19:50.885Z,70.64
2023-03-06T15:22:33.034Z,70.68
2023-03-06T15:25:22.308Z,70.24
2023-03-06T15:27:59.616Z,70.22
2023-03-06T15:30:33.113Z,69.80
2023-03-06T15:33:32.118Z,70.22
2023-03-06T15:36:03.768Z,69.93
2023-03-06T15:38:42.025Z,69.88
2023-03-06T15:41:31.848Z,69.98
2023-03-06T15:44:00.307Z,70.02
2023-03-06T15:46:27.523Z,69.92
2023-03-06T15:48:56.897Z,69.74
2023-03-06T15:51:25.826Z,69.83
2023-03-06T15:53:54.958Z,69.93
2023-03-06T15:56:28.979Z,70.21
2023-03-06T15:59:01.895Z,70.35
2023-03-06T16:01:28.674Z,67.66
2023-03-06T16:03:58.245Z,68.76
2023-03-06T16:06:25.633Z,69.44
2023-03-06T16:08:53.076Z,69.44
2023-03-06T16:11:41.884Z,69.68
2023-03-06T16:14:18.956Z,69.75
2023-03-06T16:16:45.757Z,70.08
2023-03-06T16:19:25.946Z,69.90
2023-03-06T16:21:55.103Z,68.90
2023-03-06T16:24:26.114Z,69.50
2023-03-06T16:26:54.965Z,70.10
2023-03-06T16:29:24.225Z,68.28
2023-03-06T16:31:51.212Z,69.42
2023-03-06T16:34:19.845Z,69.86
2023-03-06T16:36:48.611Z,69.92
2023-03-06T16:39:20.004Z,70.54
2023-03-06T16:41:47.185Z,70.64
2023-03-06T16:44:14.040Z,69.24
2023-03-06T16:46:45.276Z,69.91
2023-03-06T16:49:25.121Z,69.91
2023-03-06T16:51:53.137Z,70.12
2023-03-06T16:54:26.089Z,70.20
2023-03-06T16:56:52.687Z,70.26
2023-03-06T16:59:19.656Z,70.63
2023-03-06T17:01:46.360Z,70.30
2023-03-06T17:04:15.498Z,70.05
2023-03-06T17:06:44.386Z,70.07
2023-03-06T17:09:11.220Z,69.89
2023-03-06T17:11:43.090Z,70.08
2023-03-06T17:14:11.780Z,70.05
2023-03-06T17:16:40.397Z,70.06
2023-03-06T17:19:07.476Z,70.32
2023-03-06T17:21:35.440Z,70.36
2023-03-06T17:24:04.791Z,70.31
2023-03-06T17:26:31.418Z,70.46
2023-03-06T17:28:58.200Z,70.75
2023-03-06T17:31:27.096Z,71.04
2023-03-06T17:34:00.434Z,71.03
2023-03-06T17:36:28.517Z,71.01
2023-03-06T17:38:56.727Z,71.21
2023-03-06T17:41:24.683Z,71.01
2023-03-06T17:43:52.072Z,71.32
2023-03-06T17:46:23.333Z,71.83
2023-03-06T17:48:52.136Z,71.71
2023-03-06T17:51:18.708Z,71.76
2023-03-06T17:53:47.466Z,72.08
2023-03-06T17:56:17.579Z,71.80
2023-03-06T17:58:44.406Z,71.98
2023-03-06T18:01:15.802Z,72.38
2023-03-06T18:03:47.794Z,72.40
2023-03-06T18:06:15.787Z,72.20
2023-03-06T18:08:45.983Z,72.27
2023-03-06T18:11:13.668Z,72.46
2023-03-06T18:13:42.887Z,72.09
2023-03-06T18:16:12.188Z,71.62
2023-03-06T18:18:44.105Z,71.91
2023-03-06T18:21:13.434Z,71.93
2023-03-06T18:23:43.758Z,72.07
2023-03-06T18:26:19.545Z,71.82
2023-03-06T18:28:48.872Z,72.01
2023-03-06T18:31:19.904Z,71.87
2023-03-06T18:33:50.794Z,71.81
2023-03-06T18:36:24.626Z,71.67
2023-03-06T18:38:51.283Z,72.20
2023-03-06T18:41:19.822Z,71.84
2023-03-06T18:43:55.006Z,71.88
2023-03-06T18:46:25.358Z,72.23
2023-03-06T18:48:52.144Z,72.29
2023-03-06T18:51:20.186Z,72.17
2023-03-06T18:53:49.360Z,72.08
2023-03-06T18:56:19.141Z,72.45
2023-03-06T18:58:50.255Z,71.99
2023-03-06T19:01:17.791Z,72.08
2023-03-06T19:03:44.547Z,72.26
2023-03-06T19:06:16.853Z,72.48
2023-03-06T19:08:43.899Z,72.33
2023-03-06T19:11:14.377Z,72.28
2023-03-06T19:13:41.150Z,72.05
2023-03-06T19:16:08.248Z,72.49
2023-03-06T19:18:35.358Z,72.09
2023-03-06T19:21:16.263Z,72.61
2023-03-06T19:23:43.184Z,72.39
2023-03-06T19:26:10.425Z,72.40
2023-03-06T19:28:38.949Z,72.99
2023-03-06T19:31:13.048Z,73.15
2023-03-06T19:33:40.731Z,73.09
2023-03-06T19:36:09.906Z,73.51
2023-03-06T19:38:37.173Z,73.61
2023-03-06T19:41:04.404Z,73.69
2023-03-06T19:43:31.277Z,74.05
2023-03-06T19:45:58.336Z,74.00
2023-03-06T19:48:24.937Z,74.47
2023-03-06T19:50:51.568Z,74.40
2023-03-06T19:53:18.173Z,74.80
2023-03-06T19:55:44.719Z,74.48
2023-03-06T19:58:11.462Z,74.74
2023-03-06T20:00:38.235Z,75.28
2023-03-06T20:03:05.034Z,75.82
2023-03-06T20:05:31.717Z,75.73
2023-03-06T20:07:58.225Z,75.59
2023-03-06T20:10:24.811Z,75.72
2023-03-06T20:12:53.593Z,76.17
2023-03-06T20:15:22.226Z,75.94
2023-03-06T20:17:51.278Z,76.72
2023-03-06T20:20:18.115Z,76.53
2023-03-06T20:22:44.938Z,76.68
2023-03-06T20:25:11.584Z,76.98
2023-03-06T20:27:38.369Z,76.65
2023-03-06T20:30:07.817Z,77.29
2023-03-06T20:32:34.842Z,77.34
2023-03-06T20:35:01.593Z,77.69
2023-03-06T20:37:28.380Z,77.72
2023-03-06T20:39:55.050Z,78.05
2023-03-06T20:42:21.726Z,77.88
2023-03-06T20:44:50.571Z,77.92
2023-03-06T20:47:17.208Z,78.44
2023-03-06T20:49:43.820Z,78.03
2023-03-06T20:52:10.498Z,78.27
2023-03-06T20:54:37.372Z,78.43
2023-03-06T20:57:06.249Z,78.95
2023-03-06T20:59:35.152Z,78.86
2023-03-06T21:02:01.961Z,78.99
2023-03-06T21:04:28.765Z,78.64
2023-03-06T21:06:57.999Z,78.75
2023-03-06T21:09:27.069Z,78.97
2023-03-06T21:11:55.901Z,79.31
2023-03-06T21:14:22.620Z,79.10
2023-03-06T21:16:49.199Z,79.47
2023-03-06T21:19:15.848Z,79.50
2023-03-06T21:21:50.384Z,82.23
2023-03-06T21:24:21.212Z,81.53
2023-03-06T21:26:48.267Z,81.55
2023-03-06T21:29:14.992Z,81.40
2023-03-06T21:31:42.189Z,81.24
2023-03-06T21:34:10.609Z,81.10
2023-03-06T21:36:37.696Z,81.80
2023-03-06T21:39:06.335Z,81.37
2023-03-06T21:41:33.297Z,81.83
2023-03-06T21:44:02.562Z,81.24
2023-03-06T21:46:31.886Z,81.28
2023-03-06T21:48:58.676Z,81.71
2023-03-06T21:51:27.129Z,81.38
2023-03-06T21:53:57.477Z,81.60
2023-03-06T21:56:28.453Z,81.68
2023-03-06T21:58:58.297Z,81.64
2023-03-06T22:01:27.515Z,81.90
2023-03-06T22:03:54.860Z,82.29
2023-03-06T22:06:26.670Z,82.24
2023-03-06T22:08:55.620Z,82.16
2023-03-06T22:11:24.209Z,82.04
2023-03-06T22:13:53.211Z,82.33
2023-03-06T22:16:20.963Z,82.19
2023-03-06T22:18:49.651Z,82.54
2023-03-06T22:21:23.264Z,82.48
2023-03-06T22:23:57.267Z,82.53
2023-03-06T22:26:24.949Z,82.26
2023-03-06T22:28:51.565Z,82.21
2023-03-06T22:31:28.674Z,82.51
2023-03-06T22:33:57.482Z,82.07
2023-03-06T22:36:24.467Z,82.25
2023-03-06T22:38:56.154Z,82.50
2023-03-06T22:41:26.867Z,82.26
2023-03-06T22:44:01.590Z,82.15
2023-03-06T22:46:28.795Z,84.31
2023-03-06T22:49:00.119Z,83.49
2023-03-06T22:51:28.210Z,83.27
2023-03-06T22:53:54.845Z,83.02
2023-03-06T22:56:22.468Z,83.42
2023-03-06T22:58:49.227Z,83.44
2023-03-06T23:01:18.880Z,83.15
2023-03-06T23:03:48.070Z,83.15
2023-03-06T23:06:21.409Z,83.19
2023-03-06T23:08:54.579Z,83.43
2023-03-06T23:11:22.438Z,83.73
2023-03-06T23:13:55.524Z,83.38
2023-03-06T23:16:22.164Z,83.64
2023-03-06T23:18:51.219Z,83.25
2023-03-06T23:21:19.575Z,83.65
2023-03-06T23:23:53.118Z,83.83
2023-03-06T23:26:22.641Z,83.84
2023-03-06T23:28:49.599Z,84.05
2023-03-06T23:31:19.319Z,84.22
2023-03-06T23:33:45.997Z,84.11
2023-03-06T23:36:14.629Z,84.29
2023-03-06T23:38:44.412Z,84.55
2023-03-06T23:41:14.420Z,84.32
2023-03-06T23:43:41.198Z,84.70
2023-03-06T23:46:08.095Z,84.77
2023-03-06T23:48:39.001Z,85.38
2023-03-06T23:51:15.371Z,85.44
2023-03-06T23:53:42.755Z,85.46
2023-03-06T23:56:12.639Z,85.90
2023-03-06T23:58:39.354Z,85.43
